sensor_id;sensor_type;location;lat;lon;timestamp;pressure;altitude;pressure_sealevel;temperature;humidity
48402;BME280;65988;52.422;16.746;2023-04-27T00:00:27;99334.09;;;18.31;34.69
48402;BME280;65988;52.422;16.746;2023-04-27T00:06:01;99566.91;;;19.52;34.51
48402;BME280;65988;52.422;16.746;2023-04-27T00:11:58;99639.03;;;19.69;34.44
48402;BME280;65988;52.422;16.746;2023-04-27T00:14:46;99561.03;;;19.37;34.26
48402;BME280;65988;52.422;16.746;2023-04-27T00:21:02;99640.59;;;19.60;34.62
48402;BME280;65988;52.422;16.746;2023-04-27T00:23:55;99567.03;;;20.41;33.31
48402;BME280;65988;52.422;16.746;2023-04-27T00:27:12;99631.56;;;20.78;33.12
48402;BME280;65988;52.422;16.746;2023-04-27T00:30:03;99633.72;;;20.50;33.07
48402;BME280;65988;52.422;16.746;2023-04-27T00:33:01;99627.03;;;20.68;33.11
48402;BME280;65988;52.422;16.746;2023-04-27T00:36:11;99616.91;;;20.41;33.59
48402;BME280;65988;52.422;16.746;2023-04-27T00:38:56;99567.91;;;20.19;33.64
48402;BME280;65988;52.422;16.746;2023-04-27T00:41:45;99579.50;;;20.72;32.99
48402;BME280;65988;52.422;16.746;2023-04-27T00:44:40;99633.09;;;20.69;33.43
48402;BME280;65988;52.422;16.746;2023-04-27T00:47:44;99573.84;;;19.64;34.46
48402;BME280;65988;52.422;16.746;2023-04-27T00:53:52;99619.25;;;19.76;34.65
48402;BME280;65988;52.422;16.746;2023-04-27T00:56:43;99561.00;;;19.84;34.48
48402;BME280;65988;52.422;16.746;2023-04-27T01:03:06;99611.91;;;19.81;34.52
48402;BME280;65988;52.422;16.746;2023-04-27T01:09:02;99550.13;;;18.35;36.55
48402;BME280;65988;52.422;16.746;2023-04-27T01:18:06;99615.72;;;20.23;33.99
48402;BME280;65988;52.422;16.746;2023-04-27T01:21:05;99705.56;;;20.60;34.21
48402;BME280;65988;52.422;16.746;2023-04-27T01:24:34;99612.88;;;20.37;34.05
48402;BME280;65988;52.422;16.746;2023-04-27T01:31:01;99664.16;;;20.30;33.98
48402;BME280;65988;52.422;16.746;2023-04-27T01:33:56;99659.16;;;20.27;33.77
48402;BME280;65988;52.422;16.746;2023-04-27T01:36:59;99603.94;;;19.94;34.53
48402;BME280;65988;52.422;16.746;2023-04-27T01:39:44;99571.47;;;19.14;35.81
48402;BME280;65988;52.422;16.746;2023-04-27T01:55:08;99611.66;;;20.41;33.84
48402;BME280;65988;52.422;16.746;2023-04-27T01:57:43;99631.03;;;19.59;34.94
48402;BME280;65988;52.422;16.746;2023-04-27T02:07:14;99661.78;;;19.93;34.69
48402;BME280;65988;52.422;16.746;2023-04-27T02:10:12;99694.38;;;20.70;34.05
48402;BME280;65988;52.422;16.746;2023-04-27T02:12:53;99654.84;;;20.14;34.62
48402;BME280;65988;52.422;16.746;2023-04-27T02:15:21;99499.81;;;19.95;33.88
48402;BME280;65988;52.422;16.746;2023-04-27T02:21:46;99617.16;;;19.93;34.52
48402;BME280;65988;52.422;16.746;2023-04-27T02:27:21;99654.72;;;20.05;34.87
48402;BME280;65988;52.422;16.746;2023-04-27T02:30:16;99684.41;;;19.82;35.25
48402;BME280;65988;52.422;16.746;2023-04-27T02:32:48;99728.81;;;20.20;34.77
48402;BME280;65988;52.422;16.746;2023-04-27T02:35:19;99697.69;;;20.15;35.00
48402;BME280;65988;52.422;16.746;2023-04-27T02:40:34;99626.00;;;19.09;36.00
48402;BME280;65988;52.422;16.746;2023-04-27T02:43:14;99610.00;;;19.01;36.18
48402;BME280;65988;52.422;16.746;2023-04-27T02:45:54;99726.44;;;18.97;36.91
48402;BME280;65988;52.422;16.746;2023-04-27T02:48:43;99707.31;;;20.03;35.12
48402;BME280;65988;52.422;16.746;2023-04-27T02:54:36;99734.44;;;20.60;34.41
48402;BME280;65988;52.422;16.746;2023-04-27T02:57:40;99682.31;;;20.44;34.58
48402;BME280;65988;52.422;16.746;2023-04-27T03:00:36;99603.16;;;19.70;34.87
48402;BME280;65988;52.422;16.746;2023-04-27T03:06:59;99718.22;;;20.21;34.58
48402;BME280;65988;52.422;16.746;2023-04-27T04:07:28;99457.09;;;18.31;36.24
48402;BME280;65988;52.422;16.746;2023-04-27T04:10:31;99780.56;;;20.06;35.25
48402;BME280;65988;52.422;16.746;2023-04-27T04:13:20;99739.53;;;19.94;35.43
48402;BME280;65988;52.422;16.746;2023-04-27T04:16:20;99717.75;;;20.27;34.97
48402;BME280;65988;52.422;16.746;2023-04-27T04:19:16;99746.97;;;20.23;34.99
48402;BME280;65988;52.422;16.746;2023-04-27T04:21:48;99481.31;;;19.17;35.67
48402;BME280;65988;52.422;16.746;2023-04-27T04:30:42;99819.19;;;20.40;35.39
48402;BME280;65988;52.422;16.746;2023-04-27T04:33:23;99537.94;;;19.31;35.75
48402;BME280;65988;52.422;16.746;2023-04-27T04:38:43;99823.47;;;20.29;35.54
48402;BME280;65988;52.422;16.746;2023-04-27T04:41:13;99804.06;;;19.96;35.69
48402;BME280;65988;52.422;16.746;2023-04-27T04:43:44;99636.84;;;20.10;34.86
48402;BME280;65988;52.422;16.746;2023-04-27T04:46:20;99963.94;;;21.40;34.87
48402;BME280;65988;52.422;16.746;2023-04-27T04:49:17;99715.38;;;20.70;34.52
48402;BME280;65988;52.422;16.746;2023-04-27T04:51:50;99800.75;;;20.17;35.93
48402;BME280;65988;52.422;16.746;2023-04-27T04:54:21;99881.94;;;21.46;34.53
48402;BME280;65988;52.422;16.746;2023-04-27T04:57:30;99871.44;;;21.24;34.76
48402;BME280;65988;52.422;16.746;2023-04-27T05:00:21;99961.09;;;21.66;34.84
48402;BME280;65988;52.422;16.746;2023-04-27T05:12:54;99771.31;;;21.04;34.54
48402;BME280;65988;52.422;16.746;2023-04-27T05:15:53;99843.38;;;20.67;35.62
48402;BME280;65988;52.422;16.746;2023-04-27T05:21:55;99981.63;;;21.15;35.67
48402;BME280;65988;52.422;16.746;2023-04-27T05:24:56;99876.94;;;20.75;35.57
48402;BME280;65988;52.422;16.746;2023-04-27T05:34:56;99889.47;;;21.40;34.88
48402;BME280;65988;52.422;16.746;2023-04-27T05:46:40;99917.66;;;21.83;34.23
48402;BME280;65988;52.422;16.746;2023-04-27T09:50:32;99368.06;;;29.85;22.45
48402;BME280;65988;52.422;16.746;2023-04-27T09:53:43;99375.34;;;28.27;23.19
48402;BME280;65988;52.422;16.746;2023-04-27T09:56:47;99383.94;;;27.59;23.13
48402;BME280;65988;52.422;16.746;2023-04-27T09:59:35;99332.34;;;26.58;23.58
48402;BME280;65988;52.422;16.746;2023-04-27T10:07:32;99265.03;;;25.02;24.69
48402;BME280;65988;52.422;16.746;2023-04-27T10:13:35;99275.06;;;25.41;24.37
48402;BME280;65988;52.422;16.746;2023-04-27T10:16:17;99161.94;;;23.90;25.07
48402;BME280;65988;52.422;16.746;2023-04-27T10:19:36;99375.00;;;24.87;25.19
48402;BME280;65988;52.422;16.746;2023-04-27T10:25:17;99562.84;;;29.90;22.41
48402;BME280;65988;52.422;16.746;2023-04-27T10:28:39;99654.13;;;31.45;21.68
48402;BME280;65988;52.422;16.746;2023-04-27T10:34:17;99402.59;;;28.97;22.21
48402;BME280;65988;52.422;16.746;2023-04-27T10:36:46;99507.88;;;29.74;22.06
48402;BME280;65988;52.422;16.746;2023-04-27T10:39:31;99402.59;;;28.82;22.38
48402;BME280;65988;52.422;16.746;2023-04-27T10:42:44;99326.53;;;27.81;21.92
48402;BME280;65988;52.422;16.746;2023-04-27T10:48:29;99652.66;;;30.99;21.60
48402;BME280;65988;52.422;16.746;2023-04-27T10:57:07;99267.00;;;26.09;23.76
48402;BME280;65988;52.422;16.746;2023-04-27T11:06:52;99315.91;;;25.39;24.19
48402;BME280;65988;52.422;16.746;2023-04-27T11:09:28;99159.06;;;24.10;25.29
48402;BME280;65988;52.422;16.746;2023-04-27T11:11:54;99137.56;;;23.52;25.50
48402;BME280;65988;52.422;16.746;2023-04-27T11:14:22;99193.28;;;23.31;25.47
48402;BME280;65988;52.422;16.746;2023-04-27T11:16:53;99378.25;;;23.82;26.08
48402;BME280;65988;52.422;16.746;2023-04-27T11:23:04;99568.53;;;26.30;25.17
48402;BME280;65988;52.422;16.746;2023-04-27T11:29:50;99547.44;;;26.71;24.99
48402;BME280;65988;52.422;16.746;2023-04-27T11:47:01;99534.63;;;25.56;25.52
48402;BME280;65988;52.422;16.746;2023-04-27T11:49:33;99651.41;;;26.57;25.95
48402;BME280;65988;52.422;16.746;2023-04-27T11:52:12;99626.88;;;26.46;25.80
48402;BME280;65988;52.422;16.746;2023-04-27T11:55:19;99497.06;;;26.71;24.65
48402;BME280;65988;52.422;16.746;2023-04-27T11:58:19;99747.13;;;27.97;24.68
48402;BME280;65988;52.422;16.746;2023-04-27T12:01:26;99669.59;;;28.02;24.51
48402;BME280;65988;52.422;16.746;2023-04-27T12:03:59;99351.34;;;25.62;24.47
48402;BME280;65988;52.422;16.746;2023-04-27T12:12:12;99309.34;;;26.58;23.96
48402;BME280;65988;52.422;16.746;2023-04-27T12:15:10;99406.09;;;26.21;23.96
48402;BME280;65988;52.422;16.746;2023-04-27T12:17:52;99554.19;;;27.48;24.09
48402;BME280;65988;52.422;16.746;2023-04-27T12:20:47;99695.88;;;28.44;23.72
48402;BME280;65988;52.422;16.746;2023-04-27T12:23:38;99777.03;;;30.34;22.88
48402;BME280;65988;52.422;16.746;2023-04-27T12:29:12;99648.91;;;28.91;23.45
48402;BME280;65988;52.422;16.746;2023-04-27T12:34:47;99354.31;;;25.51;24.50
48402;BME280;65988;52.422;16.746;2023-04-27T12:37:21;99146.53;;;24.47;25.03
48402;BME280;65988;52.422;16.746;2023-04-27T12:39:59;99419.66;;;25.51;24.45
48402;BME280;65988;52.422;16.746;2023-04-27T12:48:19;99676.78;;;27.68;24.58
48402;BME280;65988;52.422;16.746;2023-04-27T12:50:50;99316.13;;;25.11;25.03
48402;BME280;65988;52.422;16.746;2023-04-27T12:56:26;99437.59;;;25.73;25.38
48402;BME280;65988;52.422;16.746;2023-04-27T12:58:57;99378.63;;;25.12;25.08
48402;BME280;65988;52.422;16.746;2023-04-27T13:04:07;99397.47;;;26.19;24.36
48402;BME280;65988;52.422;16.746;2023-04-27T13:06:56;99615.91;;;26.92;25.05
48402;BME280;65988;52.422;16.746;2023-04-27T13:09:44;99456.44;;;26.95;24.83
48402;BME280;65988;52.422;16.746;2023-04-27T13:15:38;99457.09;;;25.72;25.22
48402;BME280;65988;52.422;16.746;2023-04-27T13:18:12;99240.34;;;24.24;25.46
48402;BME280;65988;52.422;16.746;2023-04-27T13:20:42;99534.63;;;25.56;25.99
48402;BME280;65988;52.422;16.746;2023-04-27T13:23:16;99607.97;;;25.99;25.89
48402;BME280;65988;52.422;16.746;2023-04-27T13:25:52;99569.56;;;25.68;25.81
48402;BME280;65988;52.422;16.746;2023-04-27T13:28:23;99352.19;;;24.59;26.26
48402;BME280;65988;52.422;16.746;2023-04-27T13:30:55;99502.66;;;25.23;25.62
48402;BME280;65988;52.422;16.746;2023-04-27T13:33:43;99487.03;;;25.12;25.80
48402;BME280;65988;52.422;16.746;2023-04-27T13:36:30;99558.41;;;25.48;26.04
48402;BME280;65988;52.422;16.746;2023-04-27T13:38:58;99282.59;;;23.80;26.34
48402;BME280;65988;52.422;16.746;2023-04-27T13:41:27;99616.47;;;25.14;26.23
48402;BME280;65988;52.422;16.746;2023-04-27T13:47:17;99562.44;;;26.38;25.15
48402;BME280;65988;52.422;16.746;2023-04-27T13:49:57;99733.22;;;27.62;24.87
48402;BME280;65988;52.422;16.746;2023-04-27T13:52:26;99283.44;;;25.20;25.18
48402;BME280;65988;52.422;16.746;2023-04-27T13:54:51;99073.34;;;23.62;25.34
48402;BME280;65988;52.422;16.746;2023-04-27T13:57:17;99197.50;;;24.04;25.51
48402;BME280;65988;52.422;16.746;2023-04-27T13:59:42;99292.78;;;24.37;25.70
48402;BME280;65988;52.422;16.746;2023-04-27T14:02:07;99663.41;;;26.26;25.01
48402;BME280;65988;52.422;16.746;2023-04-27T14:05:00;99759.94;;;27.52;25.25
48402;BME280;65988;52.422;16.746;2023-04-27T14:10:51;99619.69;;;26.81;24.76
48402;BME280;65988;52.422;16.746;2023-04-27T14:13:25;99274.47;;;24.70;25.47
48402;BME280;65988;52.422;16.746;2023-04-27T14:15:54;99266.88;;;24.41;25.64
48402;BME280;65988;52.422;16.746;2023-04-27T14:18:27;99587.50;;;25.83;25.62
48402;BME280;65988;52.422;16.746;2023-04-27T14:20:55;99497.16;;;25.77;25.53
48402;BME280;65988;52.422;16.746;2023-04-27T14:23:21;99422.81;;;25.20;25.86
48402;BME280;65988;52.422;16.746;2023-04-27T14:25:46;99292.44;;;24.14;26.01
48402;BME280;65988;52.422;16.746;2023-04-27T14:28:20;99559.59;;;25.09;26.28
48402;BME280;65988;52.422;16.746;2023-04-27T14:31:03;99608.94;;;25.37;26.23
48402;BME280;65988;52.422;16.746;2023-04-27T14:33:29;99437.97;;;24.47;26.33
48402;BME280;65988;52.422;16.746;2023-04-27T14:36:00;99560.22;;;25.03;26.20
48402;BME280;65988;52.422;16.746;2023-04-27T14:38:28;99749.25;;;25.45;26.70
48402;BME280;65988;52.422;16.746;2023-04-27T14:40:53;99098.19;;;22.23;26.90
48402;BME280;65988;52.422;16.746;2023-04-27T14:43:44;99519.88;;;24.47;26.31
48402;BME280;65988;52.422;16.746;2023-04-27T14:46:13;99336.22;;;22.60;27.33
48402;BME280;65988;52.422;16.746;2023-04-27T14:48:39;99246.63;;;22.69;27.28
48402;BME280;65988;52.422;16.746;2023-04-27T14:51:05;99327.66;;;22.95;27.15
48402;BME280;65988;52.422;16.746;2023-04-27T14:53:36;99810.16;;;25.71;26.56
48402;BME280;65988;52.422;16.746;2023-04-27T14:56:07;99428.22;;;24.48;26.38
48402;BME280;65988;52.422;16.746;2023-04-27T14:58:38;99614.22;;;25.19;26.28
48402;BME280;65988;52.422;16.746;2023-04-27T15:01:03;99311.31;;;24.19;25.79
48402;BME280;65988;52.422;16.746;2023-04-27T15:03:29;99535.22;;;24.98;25.87
48402;BME280;65988;52.422;16.746;2023-04-27T15:05:57;99480.28;;;24.65;25.73
48402;BME280;65988;52.422;16.746;2023-04-27T15:08:26;99449.91;;;25.22;25.59
48402;BME280;65988;52.422;16.746;2023-04-27T15:11:12;99777.13;;;26.72;25.52
48402;BME280;65988;52.422;16.746;2023-04-27T15:13:46;99665.03;;;25.67;26.21
48402;BME280;65988;52.422;16.746;2023-04-27T15:16:17;99487.72;;;24.52;26.71
48402;BME280;65988;52.422;16.746;2023-04-27T15:18:53;99658.88;;;25.04;26.98
48402;BME280;65988;52.422;16.746;2023-04-27T15:21:21;99475.31;;;23.98;26.96
48402;BME280;65988;52.422;16.746;2023-04-27T15:23:52;99352.53;;;24.12;26.13
48402;BME280;65988;52.422;16.746;2023-04-27T15:26:28;99600.53;;;25.41;25.29
48402;BME280;65988;52.422;16.746;2023-04-27T15:28:53;99299.50;;;23.23;26.49
48402;BME280;65988;52.422;16.746;2023-04-27T15:31:21;99272.25;;;23.51;26.66
48402;BME280;65988;52.422;16.746;2023-04-27T15:33:46;99448.22;;;23.96;26.69
48402;BME280;65988;52.422;16.746;2023-04-27T15:36:15;99414.88;;;24.13;26.38
48402;BME280;65988;52.422;16.746;2023-04-27T15:38:53;99543.84;;;24.18;26.76
48402;BME280;65988;52.422;16.746;2023-04-27T15:41:34;99620.41;;;24.91;26.54
48402;BME280;65988;52.422;16.746;2023-04-27T15:44:03;99570.31;;;24.36;26.44
48402;BME280;65988;52.422;16.746;2023-04-27T15:46:31;99758.78;;;25.10;27.11
48402;BME280;65988;52.422;16.746;2023-04-27T15:49:07;99619.22;;;25.04;26.57
48402;BME280;65988;52.422;16.746;2023-04-27T15:51:40;99526.38;;;24.89;26.20
48402;BME280;65988;52.422;16.746;2023-04-27T15:54:22;99723.13;;;25.32;26.64
48402;BME280;65988;52.422;16.746;2023-04-27T15:56:56;99583.63;;;24.62;26.94
48402;BME280;65988;52.422;16.746;2023-04-27T15:59:44;99773.19;;;25.61;26.57
48402;BME280;65988;52.422;16.746;2023-04-27T16:02:20;99781.19;;;25.88;26.43
48402;BME280;65988;52.422;16.746;2023-04-27T16:04:47;99606.06;;;24.76;26.57
48402;BME280;65988;52.422;16.746;2023-04-27T16:07:13;99464.47;;;24.19;26.57
48402;BME280;65988;52.422;16.746;2023-04-27T16:09:38;99355.19;;;23.66;26.28
48402;BME280;65988;52.422;16.746;2023-04-27T16:12:04;99426.63;;;23.55;26.74
48402;BME280;65988;52.422;16.746;2023-04-27T16:14:50;99562.22;;;24.37;26.63
48402;BME280;65988;52.422;16.746;2023-04-27T16:17:32;99633.47;;;23.91;28.01
48402;BME280;65988;52.422;16.746;2023-04-27T16:20:04;99500.22;;;22.81;28.37
48402;BME280;65988;52.422;16.746;2023-04-27T16:22:32;99693.47;;;23.89;27.88
48402;BME280;65988;52.422;16.746;2023-04-27T16:25:15;99595.97;;;23.78;27.94
48402;BME280;65988;52.422;16.746;2023-04-27T16:27:43;99448.50;;;23.37;27.61
48402;BME280;65988;52.422;16.746;2023-04-27T16:30:08;99328.28;;;22.79;27.29
48402;BME280;65988;52.422;16.746;2023-04-27T16:32:45;99652.97;;;24.46;27.63
48402;BME280;65988;52.422;16.746;2023-04-27T16:35:24;99437.56;;;23.32;27.19
48402;BME280;65988;52.422;16.746;2023-04-27T16:37:52;99670.31;;;24.21;27.21
48402;BME280;65988;52.422;16.746;2023-04-27T16:40:43;99602.38;;;24.41;27.04
48402;BME280;65988;52.422;16.746;2023-04-27T16:43:21;99562.72;;;24.23;27.17
48402;BME280;65988;52.422;16.746;2023-04-27T16:46:12;99787.25;;;25.62;26.83
48402;BME280;65988;52.422;16.746;2023-04-27T16:48:51;99610.53;;;24.48;27.08
48402;BME280;65988;52.422;16.746;2023-04-27T16:54:22;99662.88;;;24.90;26.88
48402;BME280;65988;52.422;16.746;2023-04-27T16:56:47;99595.41;;;25.04;26.56
48402;BME280;65988;52.422;16.746;2023-04-27T16:59:21;99615.97;;;24.46;27.18
48402;BME280;65988;52.422;16.746;2023-04-27T17:01:57;99677.72;;;24.45;27.62
48402;BME280;65988;52.422;16.746;2023-04-27T17:04:34;99640.94;;;24.34;27.63
48402;BME280;65988;52.422;16.746;2023-04-27T17:07:04;99520.09;;;23.90;27.45
48402;BME280;65988;52.422;16.746;2023-04-27T17:09:37;99634.16;;;24.77;26.87
48402;BME280;65988;52.422;16.746;2023-04-27T17:12:08;99698.66;;;25.48;26.46
48402;BME280;65988;52.422;16.746;2023-04-27T17:14:38;99658.81;;;23.35;29.29
48402;BME280;65988;52.422;16.746;2023-04-27T17:17:12;99764.09;;;24.82;27.55
48402;BME280;65988;52.422;16.746;2023-04-27T17:19:43;99747.88;;;24.20;28.65
48402;BME280;65988;52.422;16.746;2023-04-27T17:22:14;99804.81;;;25.17;27.68
48402;BME280;65988;52.422;16.746;2023-04-27T17:24:44;99860.31;;;25.55;27.80
48402;BME280;65988;52.422;16.746;2023-04-27T17:27:09;99516.28;;;25.10;26.59
48402;BME280;65988;52.422;16.746;2023-04-27T17:29:35;99454.44;;;23.49;27.99
48402;BME280;65988;52.422;16.746;2023-04-27T17:32:11;99817.88;;;24.63;28.69
48402;BME280;65988;52.422;16.746;2023-04-27T17:34:37;99564.38;;;24.24;27.73
48402;BME280;65988;52.422;16.746;2023-04-27T17:37:08;99893.16;;;25.34;28.36
48402;BME280;65988;52.422;16.746;2023-04-27T17:39:43;99755.97;;;24.56;28.57
48402;BME280;65988;52.422;16.746;2023-04-27T17:42:11;99671.09;;;23.84;28.63
48402;BME280;65988;52.422;16.746;2023-04-27T17:44:44;99560.41;;;23.05;29.43
48402;BME280;65988;52.422;16.746;2023-04-27T17:47:18;99782.34;;;24.18;29.14
48402;BME280;65988;52.422;16.746;2023-04-27T17:49:54;99681.41;;;23.77;29.09
48402;BME280;65988;52.422;16.746;2023-04-27T17:52:21;99563.72;;;23.47;29.55
48402;BME280;65988;52.422;16.746;2023-04-27T17:57:17;99434.66;;;22.59;29.51
48402;BME280;65988;52.422;16.746;2023-04-27T17:59:53;99759.06;;;23.55;29.76
48402;BME280;65988;52.422;16.746;2023-04-27T18:02:22;99565.00;;;22.54;30.09
48402;BME280;65988;52.422;16.746;2023-04-27T18:04:50;99484.41;;;22.91;29.46
48402;BME280;65988;52.422;16.746;2023-04-27T18:07:24;99751.69;;;23.98;29.04
48402;BME280;65988;52.422;16.746;2023-04-27T18:09:49;99442.25;;;22.81;29.35
48402;BME280;65988;52.422;16.746;2023-04-27T18:12:18;99654.78;;;23.02;29.51
48402;BME280;65988;52.422;16.746;2023-04-27T18:14:49;99498.66;;;22.30;30.24
48402;BME280;65988;52.422;16.746;2023-04-27T18:17:17;99722.25;;;23.14;29.54
48402;BME280;65988;52.422;16.746;2023-04-27T18:19:56;99719.50;;;23.35;29.42
48402;BME280;65988;52.422;16.746;2023-04-27T18:22:34;99436.53;;;21.98;30.23
48402;BME280;65988;52.422;16.746;2023-04-27T18:25:18;99748.28;;;23.07;29.97
48402;BME280;65988;52.422;16.746;2023-04-27T18:27:55;99626.25;;;22.16;30.35
48402;BME280;65988;52.422;16.746;2023-04-27T18:30:40;99738.94;;;22.43;30.49
48402;BME280;65988;52.422;16.746;2023-04-27T18:33:16;99725.13;;;22.61;30.33
48402;BME280;65988;52.422;16.746;2023-04-27T18:35:51;99717.06;;;22.52;30.03
48402;BME280;65988;52.422;16.746;2023-04-27T18:38:39;99677.13;;;22.16;30.45
48402;BME280;65988;52.422;16.746;2023-04-27T18:41:09;99667.97;;;21.68;31.29
48402;BME280;65988;52.422;16.746;2023-04-27T18:43:40;99406.91;;;20.83;31.04
48402;BME280;65988;52.422;16.746;2023-04-27T18:46:11;99714.81;;;21.96;30.83
48402;BME280;65988;52.422;16.746;2023-04-27T18:48:37;99414.94;;;20.82;30.83
48402;BME280;65988;52.422;16.746;2023-04-27T18:51:05;99715.38;;;21.57;31.23
48402;BME280;65988;52.422;16.746;2023-04-27T18:53:56;99669.25;;;21.20;31.10
48402;BME280;65988;52.422;16.746;2023-04-27T18:56:35;99745.69;;;21.73;31.09
48402;BME280;65988;52.422;16.746;2023-04-27T18:59:08;99667.66;;;20.97;31.82
48402;BME280;65988;52.422;16.746;2023-04-27T19:01:40;99789.69;;;21.38;31.94
48402;BME280;65988;52.422;16.746;2023-04-27T19:04:25;99739.66;;;21.17;32.10
48402;BME280;65988;52.422;16.746;2023-04-27T19:07:02;99434.97;;;19.97;32.04
48402;BME280;65988;52.422;16.746;2023-04-27T19:09:36;99671.06;;;20.42;32.23
48402;BME280;65988;52.422;16.746;2023-04-27T19:12:19;99745.94;;;20.93;31.92
48402;BME280;65988;52.422;16.746;2023-04-27T19:17:38;99690.41;;;20.64;32.04
48402;BME280;65988;52.422;16.746;2023-04-27T19:20:30;99745.78;;;21.06;31.44
48402;BME280;65988;52.422;16.746;2023-04-27T19:23:01;99749.38;;;20.60;32.47
48402;BME280;65988;52.422;16.746;2023-04-27T19:25:45;99785.09;;;20.96;32.07
48402;BME280;65988;52.422;16.746;2023-04-27T19:28:44;99743.91;;;20.74;32.19
48402;BME280;65988;52.422;16.746;2023-04-27T19:31:15;99618.13;;;20.37;32.23
48402;BME280;65988;52.422;16.746;2023-04-27T19:33:51;99726.94;;;20.67;32.30
48402;BME280;65988;52.422;16.746;2023-04-27T19:36:22;99529.66;;;19.82;32.27
48402;BME280;65988;52.422;16.746;2023-04-27T19:38:58;99616.50;;;19.55;33.18
48402;BME280;65988;52.422;16.746;2023-04-27T19:41:36;99764.78;;;19.95;33.38
48402;BME280;65988;52.422;16.746;2023-04-27T19:44:09;99547.41;;;19.21;33.34
48402;BME280;65988;52.422;16.746;2023-04-27T19:46:40;99743.34;;;19.41;34.49
48402;BME280;65988;52.422;16.746;2023-04-27T19:49:09;99545.28;;;18.66;34.61
48402;BME280;65988;52.422;16.746;2023-04-27T19:51:47;99814.72;;;19.58;34.39
48402;BME280;65988;52.422;16.746;2023-04-27T19:54:13;99529.63;;;18.77;34.08
48402;BME280;65988;52.422;16.746;2023-04-27T19:56:41;99509.72;;;18.63;33.88
48402;BME280;65988;52.422;16.746;2023-04-27T19:59:12;99825.50;;;19.90;33.82
48402;BME280;65988;52.422;16.746;2023-04-27T20:01:43;99794.25;;;19.87;33.61
48402;BME280;65988;52.422;16.746;2023-04-27T20:04:09;99560.84;;;19.05;33.42
48402;BME280;65988;52.422;16.746;2023-04-27T20:06:40;99790.09;;;19.72;33.86
48402;BME280;65988;52.422;16.746;2023-04-27T20:11:46;99764.94;;;19.45;33.91
48402;BME280;65988;52.422;16.746;2023-04-27T20:14:21;99819.94;;;19.58;34.02
48402;BME280;65988;52.422;16.746;2023-04-27T20:16:49;99841.69;;;19.71;33.82
48402;BME280;65988;52.422;16.746;2023-04-27T20:19:32;99780.88;;;19.42;34.05
48402;BME280;65988;52.422;16.746;2023-04-27T20:22:27;99812.72;;;19.86;33.58
48402;BME280;65988;52.422;16.746;2023-04-27T20:24:59;99883.91;;;20.16;33.39
48402;BME280;65988;52.422;16.746;2023-04-27T20:27:41;99748.59;;;19.90;33.32
48402;BME280;65988;52.422;16.746;2023-04-27T20:30:10;99790.69;;;19.75;33.37
48402;BME280;65988;52.422;16.746;2023-04-27T20:32:43;99853.25;;;19.81;33.42
48402;BME280;65988;52.422;16.746;2023-04-27T20:35:17;99795.44;;;19.94;33.29
48402;BME280;65988;52.422;16.746;2023-04-27T20:38:05;99725.19;;;19.27;33.50
48402;BME280;65988;52.422;16.746;2023-04-27T20:40:45;99766.19;;;19.15;33.91
48402;BME280;65988;52.422;16.746;2023-04-27T20:43:16;99814.00;;;19.80;33.30
48402;BME280;65988;52.422;16.746;2023-04-27T20:45:46;99720.88;;;19.26;33.32
48402;BME280;65988;52.422;16.746;2023-04-27T20:48:12;99578.47;;;19.49;32.70
48402;BME280;65988;52.422;16.746;2023-04-27T20:50:47;99685.00;;;19.86;32.53
48402;BME280;65988;52.422;16.746;2023-04-27T20:53:18;99843.41;;;20.43;32.39
48402;BME280;65988;52.422;16.746;2023-04-27T20:55:50;99786.53;;;20.08;32.52
48402;BME280;65988;52.422;16.746;2023-04-27T20:58:28;99776.25;;;19.94;32.69
48402;BME280;65988;52.422;16.746;2023-04-27T21:01:06;99799.84;;;20.29;32.23
48402;BME280;65988;52.422;16.746;2023-04-27T21:03:43;99790.41;;;20.27;32.56
48402;BME280;65988;52.422;16.746;2023-04-27T21:06:09;99492.75;;;19.16;32.49
48402;BME280;65988;52.422;16.746;2023-04-27T21:08:37;99750.47;;;19.88;32.69
48402;BME280;65988;52.422;16.746;2023-04-27T21:11:05;99665.66;;;19.40;32.93
48402;BME280;65988;52.422;16.746;2023-04-27T21:13:33;99550.28;;;19.18;32.26
48402;BME280;65988;52.422;16.746;2023-04-27T21:16:05;99491.47;;;18.86;32.63
48402;BME280;65988;52.422;16.746;2023-04-27T21:18:30;99789.00;;;20.45;31.92
48402;BME280;65988;52.422;16.746;2023-04-27T21:20:55;99551.16;;;19.29;32.15
48402;BME280;65988;52.422;16.746;2023-04-27T21:23:23;99774.09;;;19.99;32.57
48402;BME280;65988;52.422;16.746;2023-04-27T21:25:51;99789.16;;;19.97;32.56
48402;BME280;65988;52.422;16.746;2023-04-27T21:28:20;99482.78;;;19.32;31.84
48402;BME280;65988;52.422;16.746;2023-04-27T21:30:45;99479.81;;;18.55;32.67
48402;BME280;65988;52.422;16.746;2023-04-27T21:33:14;99539.78;;;18.58;33.15
48402;BME280;65988;52.422;16.746;2023-04-27T21:35:39;99552.25;;;19.03;32.89
48402;BME280;65988;52.422;16.746;2023-04-27T21:38:05;99444.53;;;19.19;32.04
48402;BME280;65988;52.422;16.746;2023-04-27T21:40:30;99474.19;;;19.30;32.07
48402;BME280;65988;52.422;16.746;2023-04-27T21:43:00;99679.94;;;19.36;32.38
48402;BME280;65988;52.422;16.746;2023-04-27T21:45:34;99548.09;;;18.52;33.47
48402;BME280;65988;52.422;16.746;2023-04-27T21:48:00;99465.25;;;18.51;32.93
48402;BME280;65988;52.422;16.746;2023-04-27T21:50:31;99761.28;;;19.47;32.65
48402;BME280;65988;52.422;16.746;2023-04-27T21:53:04;99799.41;;;19.76;32.50
48402;BME280;65988;52.422;16.746;2023-04-27T21:55:33;99596.28;;;19.33;31.99
48402;BME280;65988;52.422;16.746;2023-04-27T21:57:58;99354.91;;;17.97;33.00
48402;BME280;65988;52.422;16.746;2023-04-27T22:00:29;99715.50;;;18.53;33.81
48402;BME280;65988;52.422;16.746;2023-04-27T22:02:58;99423.47;;;17.01;34.42